Time;durP1;ratioP1;P1;durP2;ratioP2;P2;SDS_P1;SDS_P2;PMS_P1;PMS_P2;Temp;Humidity;BMP_temperature;BMP_pressure;BME280_temperature;BME280_humidity;BME280_pressure;Samples;Min_cycle;Max_cycle;Signal;HPM_P1;HPM_P2
2022/01/25 00:26:31;;;;;;;4.10;3.75;;;;;;;3.41;100.00;103533.53;5015353;28;20064;-71
2022/01/25 00:31:27;;;;;;;7.35;4.45;;;;;;;3.50;100.00;103537.31;5016703;28;20045;-70
2022/01/25 00:33:53;;;;;;;4.63;3.60;;;;;;;3.54;100.00;103533.06;5016531;28;20034;-71
2022/01/25 00:36:22;;;;;;;4.30;3.90;;;;;;;3.45;100.00;103527.53;5015180;28;20026;-70
2022/01/25 00:38:49;;;;;;;5.28;4.78;;;;;;;3.58;100.00;103537.56;5016223;28;20072;-70
2022/01/25 00:41:15;;;;;;;4.88;4.50;;;;;;;3.35;100.00;103534.25;5015917;28;20384;-71
2022/01/25 00:43:41;;;;;;;4.80;3.30;;;;;;;3.38;100.00;103543.94;5014133;28;20052;-70
2022/01/25 00:46:10;;;;;;;5.18;4.68;;;;;;;3.43;100.00;103537.09;5015711;28;20470;-70
2022/01/25 00:54:05;;;;;;;8.55;4.60;;;;;;;3.36;100.00;103532.53;5015361;28;20045;-70
2022/01/25 00:56:33;;;;;;;4.07;3.78;;;;;;;3.40;100.00;103526.50;5015855;28;20037;-70
2022/01/25 00:59:00;;;;;;;6.70;5.28;;;;;;;3.31;100.00;103521.88;5015873;28;20037;-70
2022/01/25 01:01:26;;;;;;;5.00;4.60;;;;;;;3.35;100.00;103528.09;5015799;28;20022;-70
2022/01/25 01:03:51;;;;;;;5.85;4.40;;;;;;;3.30;100.00;103525.34;5015259;28;20026;-70
2022/01/25 01:06:17;;;;;;;6.90;4.10;;;;;;;3.31;100.00;103528.88;5015159;28;20034;-70
2022/01/25 01:08:43;;;;;;;6.32;4.47;;;;;;;3.36;100.00;103519.41;5015115;28;20065;-70
2022/01/25 01:11:14;;;;;;;5.15;4.30;;;;;;;3.37;100.00;103519.44;5013566;28;20034;-70
2022/01/25 01:35:42;;;;;;;9.65;4.57;;;;;;;3.40;100.00;103516.91;5015245;28;20132;-71
2022/01/25 01:46:28;;;;;;;7.07;5.13;;;;;;;3.27;100.00;103519.09;5015138;28;20103;-70
2022/01/25 01:49:10;;;;;;;5.90;5.40;;;;;;;3.25;100.00;103518.19;5015105;28;20060;-71
2022/01/25 01:51:39;;;;;;;6.15;4.63;;;;;;;3.25;100.00;103513.81;5013299;28;20468;-70
2022/01/25 01:54:08;;;;;;;5.00;4.38;;;;;;;3.27;100.00;103517.38;5014832;28;20030;-71
2022/01/25 01:56:33;;;;;;;6.63;5.68;;;;;;;3.25;100.00;103513.81;5014457;28;20022;-71
2022/01/25 01:59:02;;;;;;;5.15;3.45;;;;;;;3.35;100.00;103500.13;5014448;28;20365;-71
2022/01/25 02:01:30;;;;;;;10.35;4.45;;;;;;;3.32;100.00;103502.66;5014421;28;20037;-70
2022/01/25 02:03:57;;;;;;;7.15;5.00;;;;;;;3.28;100.00;103507.78;5014959;28;20145;-70
2022/01/25 02:06:22;;;;;;;5.60;5.13;;;;;;;3.18;100.00;103504.00;5012957;28;20370;-70
2022/01/25 02:08:48;;;;;;;5.43;3.35;;;;;;;3.23;100.00;103505.00;5013566;28;20025;-69
2022/01/25 02:11:13;;;;;;;4.10;3.80;;;;;;;3.25;100.00;103502.44;5012981;28;20061;-70
2022/01/25 02:13:42;;;;;;;7.10;5.47;;;;;;;3.21;100.00;103517.22;5014041;28;20026;-70
2022/01/25 02:16:16;;;;;;;5.18;4.82;;;;;;;3.31;100.00;103503.47;5014729;28;20108;-70
2022/01/25 02:24:09;;;;;;;5.72;4.88;;;;;;;3.28;100.00;103494.66;5014760;28;20113;-70
2022/01/25 02:26:34;;;;;;;5.53;4.68;;;;;;;3.26;100.00;103493.69;5014061;28;20144;-70
2022/01/25 02:29:00;;;;;;;6.28;5.75;;;;;;;3.26;100.00;103489.34;5013984;28;20112;-69
2022/01/25 02:31:25;;;;;;;6.85;4.47;;;;;;;3.22;100.00;103489.19;5013846;28;20056;-70
2022/01/25 02:33:51;;;;;;;7.57;4.63;;;;;;;3.24;100.00;103490.13;5013840;28;20038;-70
2022/01/25 02:36:26;;;;;;;6.63;5.35;;;;;;;3.25;100.00;103479.66;5012690;28;20064;-69
2022/01/25 02:38:52;;;;;;;5.65;5.13;;;;;;;3.24;100.00;103479.63;5012750;28;20034;-69
2022/01/25 02:41:18;;;;;;;5.05;4.65;;;;;;;3.26;100.00;103477.94;5013056;28;20041;-70
2022/01/25 02:43:46;;;;;;;10.60;5.88;;;;;;;3.34;100.00;103482.56;5013934;28;20034;-70
2022/01/25 02:48:50;;;;;;;6.43;5.78;;;;;;;3.27;100.00;103485.88;5014787;28;20362;-70
2022/01/25 02:51:15;;;;;;;5.53;4.95;;;;;;;3.29;100.00;103481.56;5018422;28;20034;-69
2022/01/25 02:53:41;;;;;;;8.00;6.03;;;;;;;3.27;100.00;103487.59;5018127;28;20100;-70
2022/01/25 02:56:06;;;;;;;4.97;4.45;;;;;;;3.32;100.00;103494.78;5017208;28;20069;-70
2022/01/25 03:02:08;;;;;;;6.53;4.57;;;;;;;3.30;100.00;103491.22;5019408;28;20048;-70
2022/01/25 03:05:16;;;;;;;8.38;4.47;;;;;;;3.29;100.00;103492.06;5019213;28;20025;-70
2022/01/25 03:07:44;;;;;;;5.22;3.92;;;;;;;3.29;100.00;103499.94;5017179;28;20033;-71
2022/01/25 03:10:11;;;;;;;5.88;5.28;;;;;;;3.23;100.00;103498.88;5017321;28;20373;-69
2022/01/25 03:12:45;;;;;;;8.55;5.63;;;;;;;3.26;100.00;103498.97;5016458;28;20080;-70
2022/01/25 03:15:25;;;;;;;8.60;4.57;;;;;;;3.27;100.00;103498.09;5017573;28;20088;-69
2022/01/25 03:18:12;;;;;;;6.30;4.85;;;;;;;3.26;100.00;103498.97;5010957;28;20435;-69
2022/01/25 03:20:59;;;;;;;7.13;6.07;;;;;;;3.28;100.00;103508.66;5015785;28;20033;-69
2022/01/25 03:23:32;;;;;;;8.68;6.82;;;;;;;3.29;100.00;103491.16;5015937;28;20076;-69
2022/01/25 03:25:58;;;;;;;7.57;5.88;;;;;;;3.28;100.00;103482.38;5007323;28;20046;-70
2022/01/25 03:28:24;;;;;;;8.57;7.18;;;;;;;3.27;100.00;103487.59;4999549;28;20057;-70
2022/01/25 03:30:50;;;;;;;7.82;5.10;;;;;;;3.29;100.00;103491.16;5016998;28;20052;-69
2022/01/25 03:33:16;;;;;;;8.05;5.90;;;;;;;3.30;100.00;103485.06;5017341;28;20549;-69
2022/01/25 03:35:43;;;;;;;8.10;5.90;;;;;;;3.32;100.00;103486.91;5016822;28;20022;-70
2022/01/25 03:38:09;;;;;;;6.53;4.60;;;;;;;3.34;100.00;103492.19;5016761;28;20450;-69
2022/01/25 03:40:35;;;;;;;9.65;6.00;;;;;;;3.38;100.00;103486.16;5016488;28;20042;-69
2022/01/25 03:43:03;;;;;;;8.60;5.03;;;;;;;3.36;100.00;103490.50;5016938;28;20088;-70
2022/01/25 03:45:31;;;;;;;6.63;5.63;;;;;;;3.34;100.00;103492.19;5016824;28;20029;-69
2022/01/25 03:49:49;;;;;;;6.38;5.78;;;;;;;3.34;100.00;103487.81;4998734;28;20128;-69
2022/01/25 03:50:48;;;;;;;5.37;4.60;;;;;;;3.37;100.00;103485.31;5016372;28;20041;-68
2022/01/25 03:53:15;;;;;;;8.80;5.68;;;;;;;3.33;100.00;103480.78;5016738;28;20375;-69
2022/01/25 03:55:41;;;;;;;12.98;5.00;;;;;;;3.32;100.00;103480.75;5016514;28;20084;-69
2022/01/25 03:58:07;;;;;;;8.18;7.38;;;;;;;3.37;100.00;103477.41;4984076;28;20481;-69
2022/01/25 04:00:34;;;;;;;6.22;5.47;;;;;;;3.41;100.00;103484.53;4997213;28;20063;-69
2022/01/25 04:03:05;;;;;;;5.45;5.00;;;;;;;3.46;100.00;103487.28;4996220;28;20109;-68
2022/01/25 04:06:04;;;;;;;8.98;6.82;;;;;;;3.47;100.00;103482.06;4985090;28;20022;-71
2022/01/25 04:08:22;;;;;;;8.68;4.88;;;;;;;3.50;100.00;103483.91;5013462;28;20042;-68
2022/01/25 04:10:48;;;;;;;7.82;6.78;;;;;;;3.44;100.00;103483.72;5014310;28;20030;-69
2022/01/25 04:13:13;;;;;;;7.15;5.60;;;;;;;3.43;100.00;103476.69;4986694;28;20019;-69
2022/01/25 04:15:45;;;;;;;8.68;4.68;;;;;;;3.42;100.00;103473.16;5009269;28;20105;-69
2022/01/25 04:18:33;;;;;;;11.75;6.25;;;;;;;3.42;100.00;103473.16;5009893;28;20022;-69
2022/01/25 04:21:23;;;;;;;10.50;5.43;;;;;;;3.44;100.00;103467.94;4996496;28;20030;-69
2022/01/25 04:26:32;;;;;;;5.22;4.57;;;;;;;3.44;100.00;103465.31;5001350;28;20136;-69
2022/01/25 04:28:57;;;;;;;7.32;5.03;;;;;;;3.39;100.00;103464.31;5006320;28;20042;-70
2022/01/25 04:31:23;;;;;;;5.88;4.90;;;;;;;3.44;100.00;103466.22;5016816;28;20045;-69
2022/01/25 04:34:13;;;;;;;8.63;6.60;;;;;;;3.43;100.00;103464.44;5015950;28;20477;-68
2022/01/25 04:50:07;;;;;;;7.10;4.75;;;;;;;3.65;100.00;103463.28;5016974;28;20045;-70
2022/01/25 04:52:41;;;;;;;7.00;4.05;;;;;;;3.54;100.00;103449.88;5016802;28;20107;-69
2022/01/25 04:55:17;;;;;;;5.72;4.65;;;;;;;3.51;100.00;103455.06;5016351;28;20038;-69
2022/01/25 05:00:21;;;;;;;11.45;6.25;;;;;;;3.48;100.00;103448.81;5016246;28;20470;-72
2022/01/25 05:05:32;;;;;;;7.00;5.65;;;;;;;3.50;100.00;103449.75;4995871;28;20062;-69
2022/01/25 05:08:21;;;;;;;6.63;5.10;;;;;;;3.44;100.00;103449.56;4996293;28;20033;-69
2022/01/25 05:10:53;;;;;;;4.70;4.03;;;;;;;3.41;100.00;103447.75;4996680;28;20220;-68
2022/01/25 05:13:37;;;;;;;7.93;5.32;;;;;;;3.45;100.00;103446.09;4994271;28;20026;-68
2022/01/25 05:16:07;;;;;;;4.45;4.07;;;;;;;3.44;100.00;103449.56;5004351;28;20034;-71
2022/01/25 05:18:51;;;;;;;7.18;3.58;;;;;;;3.41;100.00;103441.59;5012186;28;20038;-70
2022/01/25 05:24:00;;;;;;;8.07;4.72;;;;;;;3.42;100.00;103448.66;5004068;28;20045;-73
2022/01/25 05:26:27;;;;;;;6.90;6.18;;;;;;;3.46;100.00;103442.63;4998630;28;20058;-71
2022/01/25 05:28:52;;;;;;;3.88;3.58;;;;;;;3.47;100.00;103444.41;4994629;28;20049;-69
2022/01/25 05:31:18;;;;;;;8.57;5.30;;;;;;;3.47;100.00;103436.53;4995452;28;20426;-71
2022/01/25 05:33:43;;;;;;;7.95;4.88;;;;;;;3.48;100.00;103438.31;4994814;28;20121;-70
2022/01/25 05:36:09;;;;;;;5.68;3.90;;;;;;;3.48;100.00;103443.56;4994455;28;20030;-69
2022/01/25 05:38:34;;;;;;;9.60;5.00;;;;;;;3.47;100.00;103449.69;4994481;28;20034;-70
2022/01/25 05:41:02;;;;;;;7.45;4.28;;;;;;;3.46;100.00;103440.00;4995532;28;20041;-69
2022/01/25 05:46:12;;;;;;;7.40;6.40;;;;;;;3.56;100.00;103442.91;4995260;28;20034;-70
2022/01/25 05:48:37;;;;;;;6.95;6.22;;;;;;;3.48;100.00;103439.22;4998786;28;20465;-70
2022/01/25 05:51:03;;;;;;;8.60;4.57;;;;;;;3.42;100.00;103444.25;5001978;28;20018;-71
2022/01/25 05:53:28;;;;;;;9.57;4.32;;;;;;;3.43;100.00;103446.06;5003183;28;20512;-70
2022/01/25 05:55:54;;;;;;;5.63;4.78;;;;;;;3.43;100.00;103447.78;5012305;28;20089;-71
2022/01/25 05:58:20;;;;;;;10.73;5.82;;;;;;;3.43;100.00;103445.16;5002480;28;20342;-70
2022/01/25 06:00:46;;;;;;;7.55;6.57;;;;;;;3.45;100.00;103461.88;4992728;28;20471;-70
2022/01/25 06:03:11;;;;;;;8.23;5.65;;;;;;;3.43;100.00;103455.66;4992854;28;20124;-70
2022/01/25 06:05:37;;;;;;;5.90;5.32;;;;;;;3.41;100.00;103457.34;4992873;28;20069;-70
2022/01/25 06:08:03;;;;;;;5.22;4.13;;;;;;;3.47;100.00;103460.19;4995074;28;20048;-70
2022/01/25 06:10:29;;;;;;;6.97;5.05;;;;;;;3.45;100.00;103460.09;5002411;28;20057;-69
2022/01/25 06:12:55;;;;;;;14.18;6.18;;;;;;;3.53;100.00;103468.22;5001646;28;20042;-70
2022/01/25 06:15:20;;;;;;;9.60;6.47;;;;;;;3.47;100.00;103468.06;5008262;28;20036;-70
2022/01/25 06:17:46;;;;;;;7.15;5.32;;;;;;;3.47;100.00;103462.81;5013702;28;20022;-70
2022/01/25 06:20:12;;;;;;;7.53;4.78;;;;;;;3.46;100.00;103447.88;5013727;28;20026;-71
2022/01/25 06:22:37;;;;;;;8.15;5.82;;;;;;;3.43;100.00;103460.94;5008344;28;20037;-69
2022/01/25 06:25:04;;;;;;;7.28;5.30;;;;;;;3.48;100.00;103454.97;4999773;28;20053;-70
2022/01/25 06:27:29;;;;;;;13.18;6.85;;;;;;;3.47;100.00;103462.81;5017114;28;20053;-70
2022/01/25 06:29:54;;;;;;;6.80;4.68;;;;;;;3.42;100.00;103459.16;5005614;28;20125;-71
2022/01/25 06:32:20;;;;;;;7.40;4.90;;;;;;;3.46;100.00;103466.25;5013905;28;20545;-69
2022/01/25 06:34:46;;;;;;;14.73;6.88;;;;;;;3.55;100.00;103474.38;5008953;28;20037;-71
2022/01/25 06:37:13;;;;;;;10.98;6.43;;;;;;;3.54;100.00;103464.75;5007536;28;20109;-70
2022/01/25 06:39:40;;;;;;;17.10;7.72;;;;;;;3.45;100.00;103464.50;5007765;28;20029;-70
2022/01/25 06:42:06;;;;;;;7.25;5.20;;;;;;;3.53;100.00;103470.84;5001023;28;20359;-70
2022/01/25 06:44:34;;;;;;;10.90;6.28;;;;;;;3.48;100.00;103460.22;4996347;28;20022;-70
2022/01/25 06:47:00;;;;;;;8.52;4.75;;;;;;;3.50;100.00;103468.16;4998064;28;20026;-70
2022/01/25 06:49:25;;;;;;;11.15;6.82;;;;;;;3.48;100.00;103465.47;4997530;28;20030;-70
2022/01/25 06:51:50;;;;;;;12.38;4.25;;;;;;;3.45;100.00;103467.13;5016725;28;20036;-70
2022/01/25 06:54:16;;;;;;;8.68;4.80;;;;;;;3.44;100.00;103467.94;5016725;28;20052;-71
2022/01/25 06:56:42;;;;;;;9.25;4.82;;;;;;;3.47;100.00;103465.44;5007584;28;20037;-84
2022/01/25 06:59:08;;;;;;;8.38;7.45;;;;;;;3.46;100.00;103467.16;5003869;28;20030;-71
2022/01/25 07:01:33;;;;;;;8.88;7.30;;;;;;;3.46;100.00;103467.16;5009488;28;20026;-70
2022/01/25 07:03:59;;;;;;;6.35;4.75;;;;;;;3.46;100.00;103466.25;5025074;28;20105;-72
2022/01/25 07:06:24;;;;;;;8.57;5.32;;;;;;;3.43;100.00;103474.06;5019837;28;20034;-71
2022/01/25 07:08:50;;;;;;;6.05;5.30;;;;;;;3.44;100.00;103475.81;5021605;28;20017;-69
2022/01/25 07:11:15;;;;;;;11.55;5.82;;;;;;;3.44;100.00;103475.81;5019079;28;20440;-71
2022/01/25 07:13:41;;;;;;;12.00;5.78;;;;;;;3.46;100.00;103471.53;5017108;28;20054;-69
2022/01/25 07:16:06;;;;;;;8.93;6.25;;;;;;;3.44;100.00;103475.81;5016811;28;20026;-69
2022/01/25 07:18:32;;;;;;;8.73;5.13;;;;;;;3.44;100.00;103483.72;5017093;28;20079;-69
2022/01/25 07:20:57;;;;;;;10.18;5.85;;;;;;;3.49;100.00;103484.72;5015474;28;20061;-70
2022/01/25 07:23:23;;;;;;;5.70;4.68;;;;;;;3.51;100.00;103480.41;5015996;28;20026;-70
2022/01/25 07:26:11;;;;;;;10.07;5.47;;;;;;;3.45;100.00;103488.13;5016864;28;20064;-69
2022/01/25 07:28:36;;;;;;;8.80;7.57;;;;;;;3.50;100.00;103490.03;5013636;28;20520;-69
2022/01/25 07:31:02;;;;;;;9.82;5.47;;;;;;;3.52;100.00;103484.81;5018376;28;20026;-70
2022/01/25 07:33:41;;;;;;;8.48;5.22;;;;;;;3.48;100.00;103496.09;5017420;28;20024;-69
2022/01/25 07:36:06;;;;;;;8.13;5.00;;;;;;;3.45;100.00;103491.63;5017874;28;20034;-68
2022/01/25 07:38:32;;;;;;;7.03;5.03;;;;;;;3.44;100.00;103489.88;5016995;28;20114;-69
2022/01/25 07:40:57;;;;;;;7.70;4.45;;;;;;;3.55;100.00;103492.78;5009106;28;20037;-69
2022/01/25 07:43:23;;;;;;;12.02;5.95;;;;;;;3.59;100.00;103489.41;5011757;28;20080;-70
2022/01/25 07:45:52;;;;;;;5.90;5.35;;;;;;;3.51;100.00;103488.31;5016412;28;20101;-70
2022/01/25 07:48:19;;;;;;;7.82;5.82;;;;;;;3.46;100.00;103490.81;5014529;28;20021;-69
2022/01/25 07:50:44;;;;;;;8.80;5.57;;;;;;;3.48;100.00;103485.59;5006692;28;20155;-70
2022/01/25 07:53:10;;;;;;;6.80;5.80;;;;;;;3.46;100.00;103488.19;5014728;28;20493;-69
2022/01/25 07:55:35;;;;;;;9.98;6.60;;;;;;;3.45;100.00;103488.13;4997178;28;20204;-69
2022/01/25 07:58:01;;;;;;;6.85;5.50;;;;;;;3.52;100.00;103483.09;4999504;28;20158;-69
2022/01/25 08:00:26;;;;;;;6.40;5.70;;;;;;;3.59;100.00;103484.16;4998877;28;20035;-69
2022/01/25 08:02:52;;;;;;;9.13;5.45;;;;;;;3.53;100.00;103491.88;4995081;28;20045;-69
2022/01/25 08:05:19;;;;;;;18.15;7.47;;;;;;;3.42;100.00;103475.78;4999821;28;20069;-69
2022/01/25 08:07:46;;;;;;;7.25;4.55;;;;;;;3.65;100.00;103479.97;4995388;28;20129;-70
2022/01/25 08:10:12;;;;;;;10.60;4.75;;;;;;;3.63;100.00;103481.66;4997791;28;20545;-72
2022/01/25 08:12:37;;;;;;;8.15;6.50;;;;;;;3.56;100.00;103477.06;5001170;28;20056;-68
2022/01/25 08:15:06;;;;;;;7.72;5.95;;;;;;;3.54;100.00;103472.63;5008725;28;20445;-70
2022/01/25 08:17:32;;;;;;;6.25;5.45;;;;;;;3.55;100.00;103477.00;4997571;28;20038;-70
2022/01/25 08:19:58;;;;;;;12.05;7.50;;;;;;;3.58;100.00;103479.75;4997802;28;20092;-72
2022/01/25 08:22:24;;;;;;;12.18;6.93;;;;;;;3.58;100.00;103477.13;4999030;28;20027;-71
2022/01/25 08:24:50;;;;;;;17.20;5.57;;;;;;;3.60;100.00;103480.66;5015711;28;20165;-70
2022/01/25 08:27:19;;;;;;;12.65;6.63;;;;;;;3.60;100.00;103478.03;5007453;28;20491;-71
2022/01/25 08:29:45;;;;;;;10.25;5.63;;;;;;;3.61;100.00;103482.47;5011763;28;20029;-71
2022/01/25 08:32:13;;;;;;;11.93;6.05;;;;;;;3.65;100.00;103482.59;5020648;28;20022;-70
2022/01/25 08:34:38;;;;;;;7.55;4.30;;;;;;;3.65;100.00;103479.06;5009502;28;20025;-70
2022/01/25 08:37:04;;;;;;;13.18;7.50;;;;;;;3.59;100.00;103474.56;5015895;28;20508;-70
2022/01/25 08:39:29;;;;;;;9.60;6.63;;;;;;;3.68;100.00;103474.78;5013686;28;20026;-70
2022/01/25 08:41:55;;;;;;;10.40;6.43;;;;;;;3.78;100.00;103482.06;5023970;28;20094;-71
2022/01/25 08:44:20;;;;;;;8.77;6.90;;;;;;;3.78;100.00;103476.78;5006353;28;20080;-71
2022/01/25 08:46:46;;;;;;;7.55;5.55;;;;;;;3.84;100.00;103473.47;5026448;28;20034;-69
2022/01/25 08:49:11;;;;;;;8.85;5.85;;;;;;;3.73;100.00;103474.91;5000023;28;20033;-70
2022/01/25 08:51:36;;;;;;;13.55;7.80;;;;;;;3.67;100.00;103477.38;5009849;28;20514;-69
2022/01/25 08:54:02;;;;;;;10.07;8.10;;;;;;;3.57;100.00;103477.97;5011540;28;20018;-70
2022/01/25 08:56:27;;;;;;;8.00;6.90;;;;;;;3.60;100.00;103480.66;5009533;28;20121;-71
2022/01/25 08:58:53;;;;;;;7.63;6.03;;;;;;;3.69;100.00;103480.94;5010380;28;20030;-70
2022/01/25 09:01:18;;;;;;;9.43;6.40;;;;;;;3.81;100.00;103482.16;5012206;28;20081;-70
2022/01/25 09:03:44;;;;;;;10.48;5.88;;;;;;;3.73;100.00;103482.78;5005531;28;20046;-71
2022/01/25 09:06:09;;;;;;;10.55;7.35;;;;;;;3.73;100.00;103488.94;5007168;28;20026;-71
2022/01/25 09:08:35;;;;;;;11.02;6.65;;;;;;;3.60;100.00;103483.28;5006594;28;20109;-70
2022/01/25 09:11:03;;;;;;;8.00;5.78;;;;;;;3.65;100.00;103489.56;5006462;28;20037;-70
2022/01/25 09:13:29;;;;;;;13.95;7.68;;;;;;;3.70;100.00;103488.88;5008436;28;20026;-70
2022/01/25 09:15:55;;;;;;;5.75;5.05;;;;;;;3.97;100.00;103488.72;5010533;28;20022;-70
2022/01/25 09:18:20;;;;;;;14.65;6.68;;;;;;;3.87;100.00;103492.84;5009629;28;20030;-71
2022/01/25 09:20:46;;;;;;;12.10;5.85;;;;;;;3.85;100.00;103499.78;5002790;28;20096;-71
2022/01/25 09:23:11;;;;;;;6.88;5.53;;;;;;;3.91;100.00;103496.41;5009339;28;20022;-71
2022/01/25 09:25:37;;;;;;;8.70;5.85;;;;;;;3.95;100.00;103488.69;5005451;28;20606;-71
2022/01/25 09:28:03;;;;;;;9.80;6.38;;;;;;;3.99;100.00;103495.78;4995871;28;20050;-71
2022/01/25 09:30:29;;;;;;;13.85;7.35;;;;;;;4.03;100.00;103499.38;4991768;28;20034;-70
2022/01/25 09:32:55;;;;;;;9.05;5.55;;;;;;;4.02;100.00;103503.75;4995771;28;20022;-68
2022/01/25 09:35:20;;;;;;;9.75;8.30;;;;;;;4.07;100.00;103503.88;4996656;28;20033;-69
2022/01/25 09:37:46;;;;;;;16.92;6.90;;;;;;;4.07;100.00;103509.13;4997584;28;20118;-69
2022/01/25 09:40:12;;;;;;;9.20;6.30;;;;;;;4.17;100.00;103503.25;4995335;28;20148;-69
2022/01/25 09:42:38;;;;;;;11.85;7.18;;;;;;;4.16;100.00;103504.13;4972661;28;20419;-69
2022/01/25 09:45:05;;;;;;;9.60;8.60;;;;;;;4.22;100.00;103506.91;4984811;28;20019;-69
2022/01/25 09:47:31;;;;;;;10.98;7.47;;;;;;;4.17;100.00;103505.91;4991839;28;20038;-69
2022/01/25 09:49:56;;;;;;;15.00;6.20;;;;;;;4.20;100.00;103516.50;4992052;28;20033;-69
2022/01/25 09:52:22;;;;;;;11.32;6.32;;;;;;;4.20;100.00;103520.03;4994919;28;20026;-69
2022/01/25 09:54:55;;;;;;;21.00;8.20;;;;;;;4.29;100.00;103514.09;4995618;28;20037;-69
2022/01/25 09:57:22;;;;;;;12.07;8.23;;;;;;;4.20;100.00;103524.38;4994987;28;20027;-69
2022/01/25 09:59:47;;;;;;;11.43;6.45;;;;;;;4.12;100.00;103525.91;5002231;28;20102;-70
2022/01/25 10:03:17;;;;;;;16.30;8.75;;;;;;;4.18;100.00;103526.06;4999460;28;20108;-71
2022/01/25 10:05:44;;;;;;;11.10;7.30;;;;;;;4.22;100.00;103538.47;5005247;28;20034;-70
2022/01/25 10:08:11;;;;;;;10.48;5.03;;;;;;;4.12;100.00;103528.53;4986846;28;20864;-70
2022/01/25 10:10:40;;;;;;;11.35;6.65;;;;;;;4.17;100.00;103529.56;5004730;28;20026;-71
2022/01/25 10:13:09;;;;;;;14.05;6.78;;;;;;;4.34;100.00;103538.78;5001265;28;20038;-70
2022/01/25 10:15:35;;;;;;;13.65;7.78;;;;;;;4.22;100.00;103533.22;5001578;28;20058;-70
2022/01/25 10:18:00;;;;;;;12.32;6.07;;;;;;;4.29;100.00;103533.41;5006536;28;20026;-70
2022/01/25 10:20:33;;;;;;;11.20;6.60;;;;;;;4.28;100.00;103536.91;4985985;28;20094;-70
2022/01/25 10:23:00;;;;;;;8.88;6.38;;;;;;;4.28;100.00;103541.25;5008331;28;20033;-70
2022/01/25 10:25:39;;;;;;;9.32;5.95;;;;;;;4.41;100.00;103543.34;4989662;28;20037;-70
2022/01/25 10:28:11;;;;;;;6.70;5.82;;;;;;;4.68;100.00;103537.00;5006596;28;20042;-70
2022/01/25 10:30:53;;;;;;;11.43;6.80;;;;;;;4.64;100.00;103535.19;4999923;28;20132;-71
2022/01/25 10:33:31;;;;;;;20.02;7.05;;;;;;;4.54;100.00;103533.16;4975520;28;20029;-70
2022/01/25 10:36:08;;;;;;;11.57;6.72;;;;;;;4.42;100.00;103543.41;5003387;28;20083;-70
2022/01/25 10:38:34;;;;;;;18.00;8.73;;;;;;;4.30;100.00;103553.59;5006187;28;20054;-70
2022/01/25 10:41:11;;;;;;;11.52;6.10;;;;;;;4.30;100.00;103556.22;4985498;28;20033;-70
2022/01/25 10:43:38;;;;;;;12.32;7.10;;;;;;;4.09;100.00;103544.25;4985258;28;20088;-70
2022/01/25 10:46:15;;;;;;;8.80;5.43;;;;;;;4.19;100.00;103556.81;4981733;28;20109;-70
2022/01/25 10:48:47;;;;;;;13.75;7.97;;;;;;;4.23;100.00;103550.75;4981130;28;20050;-70
2022/01/25 10:51:16;;;;;;;11.25;6.35;;;;;;;4.32;100.00;103549.25;4999364;28;20030;-71
2022/01/25 10:53:42;;;;;;;11.57;7.97;;;;;;;4.41;100.00;103546.84;5000727;28;20477;-70
2022/01/25 10:56:08;;;;;;;12.52;6.80;;;;;;;4.45;100.00;103539.94;5000815;28;20027;-70
2022/01/25 10:58:39;;;;;;;12.50;7.60;;;;;;;4.62;100.00;103550.03;5000103;28;20038;-69
2022/01/25 11:01:05;;;;;;;18.88;10.00;;;;;;;4.56;100.00;103551.63;4979948;28;20019;-70
2022/01/25 11:03:34;;;;;;;12.60;7.60;;;;;;;4.62;100.00;103549.13;4996911;28;20034;-70
2022/01/25 11:06:29;;;;;;;;;;;;;;;4.65;100.00;103541.31;4981332;28;20036;-70
2022/01/25 11:08:59;;;;;;;14.60;6.88;;;;;;;4.61;100.00;103543.00;4985883;28;19948;-70
2022/01/25 11:11:30;;;;;;;;;;;;;;;4.78;100.00;103534.59;4998749;28;20038;-70
2022/01/25 11:14:00;;;;;;;6.68;5.18;;;;;;;4.69;100.00;103543.19;4996262;28;19921;-70
2022/01/25 11:16:25;;;;;;;8.00;7.03;;;;;;;4.65;100.00;103546.56;4995217;28;20105;-70
2022/01/25 11:18:50;;;;;;;9.07;6.45;;;;;;;4.53;100.00;103548.91;4998063;28;20023;-73
2022/01/25 11:21:16;;;;;;;15.35;8.50;;;;;;;4.61;100.00;103550.91;5000139;28;20105;-71
2022/01/25 11:23:44;;;;;;;13.55;8.43;;;;;;;4.83;100.00;103544.41;4972156;28;20552;-71
2022/01/25 11:26:13;;;;;;;11.80;6.57;;;;;;;4.73;100.00;103545.03;4999256;28;20528;-71
2022/01/25 11:28:40;;;;;;;8.68;6.93;;;;;;;4.59;100.00;103541.16;5005886;28;20046;-71
2022/01/25 11:31:09;;;;;;;12.80;7.65;;;;;;;4.60;100.00;103529.81;5015265;28;20041;-69
2022/01/25 11:33:40;;;;;;;11.00;6.40;;;;;;;4.69;100.00;103533.56;5021825;28;20026;-70
2022/01/25 11:36:07;;;;;;;9.43;6.35;;;;;;;4.74;100.00;103526.63;5019738;28;20072;-73
2022/01/25 11:38:54;;;;;;;8.85;5.93;;;;;;;4.80;100.00;103531.16;5019917;28;20030;-69
2022/01/25 11:41:23;;;;;;;9.18;6.85;;;;;;;4.82;100.00;103531.19;5021773;28;20034;-70
2022/01/25 11:44:08;;;;;;;8.82;7.30;;;;;;;4.76;100.00;103523.16;5023317;28;20557;-70
2022/01/25 11:46:35;;;;;;;14.43;8.30;;;;;;;4.65;100.00;103522.88;5009345;28;20029;-70
2022/01/25 11:49:05;;;;;;;13.48;8.23;;;;;;;4.73;100.00;103519.59;5018068;28;20038;-73
2022/01/25 11:51:31;;;;;;;10.95;8.30;;;;;;;4.65;100.00;103515.88;5024385;28;20038;-72
2022/01/25 11:54:02;;;;;;;10.23;7.63;;;;;;;4.79;100.00;103520.59;5019276;28;20088;-70
2022/01/25 11:56:27;;;;;;;10.70;6.65;;;;;;;4.72;100.00;103522.19;5015309;28;20099;-73
2022/01/25 11:58:55;;;;;;;11.93;8.52;;;;;;;4.82;100.00;103511.03;5010031;28;20018;-70
2022/01/25 12:01:24;;;;;;;15.95;7.50;;;;;;;4.61;100.00;103513.16;5005391;28;20030;-70
2022/01/25 12:04:04;;;;;;;10.50;7.88;;;;;;;4.45;100.00;103511.00;4996192;28;20050;-71
2022/01/25 12:06:36;;;;;;;13.88;6.75;;;;;;;4.62;100.00;103507.91;5002527;28;20438;-70
2022/01/25 12:09:16;;;;;;;10.70;6.57;;;;;;;4.65;100.00;103508.00;5000463;28;20030;-71
2022/01/25 12:11:49;;;;;;;17.27;8.18;;;;;;;4.70;100.00;103505.47;4999636;28;20079;-71
2022/01/25 12:14:26;;;;;;;9.68;6.53;;;;;;;4.70;100.00;103497.56;5006624;28;20128;-69
2022/01/25 12:17:02;;;;;;;14.63;7.35;;;;;;;4.71;100.00;103510.75;5008077;28;20489;-70
2022/01/25 12:19:30;;;;;;;15.10;9.35;;;;;;;4.76;100.00;103499.47;5015050;28;20390;-70
2022/01/25 12:21:57;;;;;;;10.88;6.22;;;;;;;4.83;100.00;103497.00;5005245;28;20030;-71
2022/01/25 12:24:43;;;;;;;7.97;7.32;;;;;;;4.81;100.00;103493.44;4999139;28;20030;-71
2022/01/25 12:30:32;;;;;;;14.40;8.43;;;;;;;4.87;100.00;103484.81;4998934;28;20065;-70
2022/01/25 12:33:25;;;;;;;9.40;6.18;;;;;;;4.66;100.00;103482.56;5009853;28;20109;-70
2022/01/25 12:35:57;;;;;;;14.05;7.30;;;;;;;4.88;100.00;103489.22;5008287;28;20096;-71
2022/01/25 12:38:27;;;;;;;13.15;8.10;;;;;;;4.98;100.00;103480.66;5010274;28;20085;-70
2022/01/25 12:41:15;;;;;;;12.52;7.72;;;;;;;4.85;100.00;103481.25;5013321;28;20242;-70
2022/01/25 12:43:51;;;;;;;9.60;7.53;;;;;;;4.86;100.00;103481.28;4999118;28;20174;-70
2022/01/25 12:46:24;;;;;;;9.80;7.35;;;;;;;4.90;100.00;103469.94;5007112;28;20033;-70
2022/01/25 12:48:58;;;;;;;10.85;8.00;;;;;;;5.08;100.00;103469.47;4995499;28;20401;-70
2022/01/25 12:51:25;;;;;;;11.88;7.38;;;;;;;5.11;100.00;103465.16;4995957;28;20062;-70
2022/01/25 12:53:53;;;;;;;11.13;6.40;;;;;;;4.80;100.00;103467.97;4999757;28;20021;-70
2022/01/25 12:56:28;;;;;;;8.95;7.47;;;;;;;4.93;100.00;103461.25;5029707;28;20030;-70
2022/01/25 12:59:00;;;;;;;14.30;8.32;;;;;;;4.88;100.00;103453.25;5001873;28;20498;-70
2022/01/25 13:01:27;;;;;;;15.70;8.40;;;;;;;4.90;100.00;103450.66;4994693;28;20030;-70
2022/01/25 13:04:00;;;;;;;10.73;6.50;;;;;;;4.66;100.00;103448.34;4994992;28;20026;-71
2022/01/25 13:06:52;;;;;;;12.07;5.68;;;;;;;4.71;100.00;103446.72;5003870;28;20034;-70
2022/01/25 13:16:58;;;;;;;12.18;8.20;;;;;;;4.79;100.00;103445.13;5015035;28;20038;-69
2022/01/25 13:19:38;;;;;;;9.45;6.47;;;;;;;4.88;100.00;103445.34;5009222;28;20145;-70
2022/01/25 13:22:12;;;;;;;9.13;7.28;;;;;;;4.96;100.00;103442.88;5000833;28;20030;-70
2022/01/25 13:24:48;;;;;;;14.32;7.82;;;;;;;4.94;100.00;103444.56;4995062;28;20034;-69